Strona główna
METAR-TAF:

METAR-TAF

Lotnisko :

Port lotniczy Radom-Sadków

Radom, Polska

Szerokość geograficzna: 51-23-21N, Długość geograficzna: 21-12-49E, wysokość: 186 m

Aktualna obserwacja pogody

Raport powstał 16 minut temu, godzina 06:30 UTC
Wiatr 8 kt od północ
Temperatura 15°C
Wilgotność 63%
Ciśnienie 1018 hPa
Widzialność 10 km lub więcej
Brak chmur poniżej 1500 m i brak chmur cumulonimbus

METAR: EPRA 010630Z 36008KT CAVOK 15/08 Q1018

czas: 08:46 (06:46 UTC)

Prognoza

Raport powstał 44 minut temu, godzina 06:02 UTC
Prognoza ważna od 01 godzina 06 UTC do 01 godzina 15 UTC
Wiatr 12 kt od północ
Widzialność 10 km lub więcej
Brak chmur poniżej 1500 m i brak chmur cumulonimbus
Przejściowo
od 01 godzina 10 UTC do 01 godzina 15 UTC
Wiatr 14 kt od północno-północny wschód w porywach dochodzący do 24 kt

TAF: EPRA 010602Z 0106/0115 01012KT CAVOK TEMPO 0110/0115 02014G24KT

Obserwacja i prognoza pogody dla ponad 4000 lotnisk (raport METAR i TAF).

Dostępne stacje oznaczono żółtymi i czerwonymi punktami na mapie.

Najedź kursorem aby zobaczyć nazwę stacji.

Kliknij aby zobaczyć obserwacje i prognozy pogody.

Aby zmienić mapę: kliknij na zielony przycisk z czarnym krzyżykiem, aby powiększyć; na zielony przycisk z myślnikiem, aby pomniejszyć; na zielone strzałki, aby przejść do map sąsiednich.


METAR-TAF: